Coxville, Indiana
Current Conditions -  °F | °C
As of 10:53 AM on Sunday 21 Dec 2014 (Local Time) from KHUF Reporting Station
Clear Clear  
Wind Chill: 26°   Ceiling: Unl
Heat Index: 33°   Visibility: 10mi
Dew Point: 27°   Wind: 8mph
Humidity: 78%   Direction: 150°SSE
Pressure: 30.28"   Gusts: NA
Location:  39.6386°N, 87.3045°W
Report Text: KHUF 211553Z 15007KT 10SM CLR 01/M03 A3028 RMK AO2 SLP259 T00061028
Loading
Personal Weather Stations






























Interactive Weather Map New forecast layout! Learn more

10-Day Weather Forecast

Advertisements
Track Severe Weather on mobile